createdAt,value
2023-10-21T00:00:03.802Z,0
2023-10-21T00:16:04.269Z,0
2023-10-21T00:31:00.291Z,0
2023-10-21T00:46:00.538Z,0
2023-10-21T01:00:01.200Z,0
2023-10-21T01:16:02.149Z,0
2023-10-21T01:31:02.751Z,0
2023-10-21T01:46:03.203Z,0
2023-10-21T02:00:03.821Z,0
2023-10-21T02:16:04.609Z,0
2023-10-21T02:31:00.292Z,0
2023-10-21T02:46:00.850Z,0
2023-10-21T03:00:01.648Z,0
2023-10-21T03:16:02.316Z,0
2023-10-21T03:31:03.025Z,0
2023-10-21T03:46:03.565Z,0
2023-10-21T04:00:04.299Z,0
2023-10-21T04:16:05.102Z,0
2023-10-21T04:31:00.723Z,0
2023-10-21T04:46:01.486Z,0
2023-10-21T05:00:02.143Z,0
2023-10-21T05:16:02.825Z,0
2023-10-21T05:31:03.399Z,0
2023-10-21T05:46:04.146Z,0
2023-10-21T06:00:04.639Z,16
2023-10-21T06:16:00.352Z,42
2023-10-21T06:31:00.937Z,24
2023-10-21T06:46:01.651Z,42
2023-10-21T07:00:02.469Z,137
2023-10-21T07:16:11.202Z,159
2023-10-21T07:31:03.804Z,287
2023-10-21T07:46:04.326Z,226
2023-10-21T08:00:04.949Z,116
2023-10-21T08:16:00.910Z,109
2023-10-21T08:31:01.293Z,141
2023-10-21T08:46:01.861Z,121
2023-10-21T09:00:02.538Z,147
2023-10-21T09:16:03.436Z,263
2023-10-21T09:31:03.782Z,317
2023-10-21T09:46:00.870Z,322
2023-10-21T10:00:01.521Z,211
2023-10-21T10:16:02.369Z,339
2023-10-21T10:31:03.131Z,223
2023-10-21T10:46:03.887Z,201
2023-10-21T11:00:04.307Z,205
2023-10-21T11:16:04.968Z,206
2023-10-21T11:31:00.621Z,247
2023-10-21T11:46:01.272Z,300
2023-10-21T12:00:02.016Z,306
2023-10-21T12:16:02.859Z,292
2023-10-21T12:31:03.502Z,326
2023-10-21T12:46:04.014Z,283
2023-10-21T13:00:04.474Z,230
2023-10-21T13:16:00.302Z,282
2023-10-21T13:31:03.475Z,231
2023-10-21T13:46:01.714Z,191
2023-10-21T14:00:02.280Z,150
2023-10-21T14:16:02.971Z,136
2023-10-21T14:31:03.769Z,168
2023-10-21T14:46:04.537Z,106
2023-10-21T15:00:05.105Z,77
2023-10-21T15:16:03.808Z,67
2023-10-21T15:31:01.553Z,43
2023-10-21T15:46:02.224Z,33
2023-10-21T16:00:02.686Z,14
2023-10-21T16:16:05.922Z,1
2023-10-21T16:31:04.243Z,0
2023-10-21T16:46:04.765Z,0
2023-10-21T17:00:00.382Z,0
2023-10-21T17:16:01.066Z,0
2023-10-21T17:31:01.862Z,0
2023-10-21T17:46:02.551Z,0
2023-10-21T18:00:02.973Z,0
2023-10-21T18:16:03.663Z,0
2023-10-21T18:31:04.361Z,0
2023-10-21T18:46:04.970Z,0
2023-10-21T19:00:00.589Z,0
2023-10-21T19:16:01.255Z,0
2023-10-21T19:31:01.996Z,0
2023-10-21T19:46:02.497Z,0
2023-10-21T20:00:03.006Z,0
2023-10-21T20:16:03.534Z,0
2023-10-21T20:31:06.659Z,0
2023-10-21T20:46:07.371Z,0
2023-10-21T21:00:05.224Z,0
2023-10-21T21:16:01.192Z,0
2023-10-21T21:31:01.697Z,0
2023-10-21T21:46:02.378Z,0
2023-10-21T22:00:02.960Z,0
2023-10-21T22:16:03.550Z,0
2023-10-21T22:31:06.456Z,0
2023-10-21T22:46:04.745Z,0
2023-10-21T23:00:00.430Z,0
2023-10-21T23:16:01.075Z,0
2023-10-21T23:31:01.678Z,0
2023-10-21T23:46:02.254Z,0
